Terminal Aerodrome Forecast
Issued by NWS Pocatello, ID

Home | Current Version | Previous Version | Text Only | Print | Product List | Glossary On
Versions: 1 2 3 4 5 6 7 8 9 10 11 12 13 14 15 16
000
FTUS45 KPIH 030520
TAFPIH
TAF
KPIH 030520Z 0306/0406 19010KT P6SM VCSH FEW120 BKN150
     FM031100 17012G22KT P6SM SCT150
     FM031400 23013G23KT P6SM SCT120
     FM032100 28010G20KT P6SM VCTS SCT090 BKN120CB
     FM040200 VRB06KT P6SM VCSH SCT120 BKN150=

USA.gov is the U.S. government's official web portal to all federal, state and local government web resources and services.